Time;durP1;ratioP1;P1;durP2;ratioP2;P2;SDS_P1;SDS_P2;PMS_P1;PMS_P2;Temp;Humidity;BMP_temperature;BMP_pressure;BME280_temperature;BME280_humidity;BME280_pressure;Samples;Min_cycle;Max_cycle;Signal;HPM_P1;HPM_P2
2022/12/08 00:02:32;;;;;;;30.60;20.30;;;5.10;99.90;;;;;;6154025;28;20487;-59
2022/12/08 00:12:15;;;;;;;33.63;19.40;;;5.10;99.90;;;;;;6140919;28;20498;-59
2022/12/08 00:15:18;;;;;;;27.40;19.10;;;5.10;99.90;;;;;;6153891;28;20523;-59
2022/12/08 00:18:23;;;;;;;30.33;20.90;;;5.20;99.90;;;;;;6153537;28;20478;-59
2022/12/08 00:21:26;;;;;;;30.47;19.60;;;5.20;99.90;;;;;;6153986;28;20452;-58
2022/12/08 00:24:31;;;;;;;30.23;22.00;;;5.10;99.90;;;;;;6153973;28;20475;-58
2022/12/08 00:27:34;;;;;;;30.27;22.40;;;5.10;99.90;;;;;;6153296;28;20450;-60
2022/12/08 00:30:40;;;;;;;32.23;20.60;;;5.10;99.90;;;;;;6153862;28;20466;-59
2022/12/08 00:33:44;;;;;;;30.77;20.33;;;5.10;99.90;;;;;;6154083;28;20483;-59
2022/12/08 00:36:47;;;;;;;30.83;20.27;;;5.10;99.90;;;;;;6146189;28;20475;-58
2022/12/08 00:39:50;;;;;;;27.47;18.67;;;5.10;99.90;;;;;;6130032;28;20538;-58
2022/12/08 00:42:54;;;;;;;31.43;21.17;;;5.10;99.90;;;;;;6143025;28;20483;-59
2022/12/08 00:45:57;;;;;;;30.20;20.30;;;5.10;99.90;;;;;;6165253;28;20483;-59
2022/12/08 00:49:02;;;;;;;31.40;19.63;;;5.20;99.90;;;;;;6139901;28;20482;-59
2022/12/08 00:52:05;;;;;;;34.87;21.40;;;5.20;99.90;;;;;;6144191;28;20483;-60
2022/12/08 00:55:09;;;;;;;33.23;19.93;;;5.20;99.90;;;;;;6136150;28;20973;-58
2022/12/08 00:58:12;;;;;;;32.73;20.97;;;5.20;99.90;;;;;;6152825;28;20482;-58
2022/12/08 01:01:15;;;;;;;32.47;21.77;;;5.20;99.90;;;;;;6153340;28;20481;-58
2022/12/08 01:04:20;;;;;;;35.83;21.87;;;5.20;99.90;;;;;;6152967;28;20490;-58
2022/12/08 01:07:23;;;;;;;36.70;22.70;;;5.20;99.90;;;;;;6152782;28;20474;-59
2022/12/08 01:10:26;;;;;;;36.03;23.60;;;5.10;99.90;;;;;;6152708;28;20470;-59
2022/12/08 01:13:29;;;;;;;37.20;23.37;;;5.10;99.90;;;;;;6153100;28;20479;-59
2022/12/08 01:16:34;;;;;;;33.43;23.23;;;5.10;99.90;;;;;;6152699;28;20481;-59
2022/12/08 01:19:39;;;;;;;39.90;27.07;;;5.10;99.90;;;;;;6152321;28;20485;-58
2022/12/08 01:22:42;;;;;;;39.63;25.13;;;5.00;99.90;;;;;;6152504;28;20479;-58
2022/12/08 01:25:45;;;;;;;36.03;24.07;;;5.00;99.90;;;;;;6152475;28;20942;-58
2022/12/08 01:28:49;;;;;;;38.73;24.90;;;5.00;99.90;;;;;;6152671;28;20483;-60
2022/12/08 01:31:52;;;;;;;42.37;26.03;;;4.90;99.90;;;;;;6151743;28;20490;-57
2022/12/08 01:34:57;;;;;;;46.07;26.07;;;5.00;99.90;;;;;;6151795;28;21249;-58
2022/12/08 01:38:00;;;;;;;42.03;24.87;;;5.00;99.90;;;;;;6134056;28;20498;-58
2022/12/08 01:41:03;;;;;;;41.80;25.50;;;5.00;99.90;;;;;;6128310;28;20805;-58
2022/12/08 01:44:39;;;;;;;44.37;24.93;;;5.00;99.90;;;;;;6128073;28;20483;-58
2022/12/08 01:47:46;;;;;;;41.07;24.37;;;5.00;99.90;;;;;;6128720;28;20543;-58
2022/12/08 01:50:53;;;;;;;36.27;23.50;;;5.00;99.90;;;;;;6121038;28;20607;-58
2022/12/08 01:53:57;;;;;;;46.17;26.83;;;5.00;99.90;;;;;;6121593;28;20487;-58
2022/12/08 01:57:05;;;;;;;43.90;27.37;;;5.10;99.90;;;;;;6144473;28;20484;-58
2022/12/08 02:00:11;;;;;;;40.17;25.57;;;5.10;99.90;;;;;;6109704;29;20487;-58
2022/12/08 02:03:19;;;;;;;41.97;24.13;;;5.10;99.90;;;;;;6117228;28;20484;-58
2022/12/08 02:06:24;;;;;;;44.43;27.63;;;5.20;99.90;;;;;;6109462;28;20825;-59
2022/12/08 02:09:27;;;;;;;37.63;24.40;;;5.20;99.90;;;;;;6120114;28;20499;-59
2022/12/08 02:12:30;;;;;;;39.43;24.37;;;5.10;99.90;;;;;;6112399;29;20483;-59
2022/12/08 02:15:45;;;;;;;36.90;25.43;;;5.20;99.90;;;;;;6109760;29;20461;-59
2022/12/08 02:19:02;;;;;;;43.27;25.83;;;5.30;99.90;;;;;;6110028;29;20477;-59
2022/12/08 02:22:32;;;;;;;45.50;26.13;;;5.40;99.90;;;;;;6109151;29;20576;-59
2022/12/08 02:25:48;;;;;;;46.10;26.53;;;5.40;99.90;;;;;;6109574;29;20476;-59
2022/12/08 02:29:14;;;;;;;41.53;26.47;;;5.40;99.90;;;;;;6108843;29;20806;-59
2022/12/08 02:32:37;;;;;;;43.57;25.23;;;5.30;99.90;;;;;;6109051;28;20544;-59
2022/12/08 02:35:49;;;;;;;42.13;26.47;;;5.30;99.90;;;;;;6108510;29;20873;-59
2022/12/08 02:38:59;;;;;;;48.40;27.37;;;5.30;99.90;;;;;;6108990;29;20492;-59
2022/12/08 02:42:08;;;;;;;41.43;26.87;;;5.30;99.90;;;;;;6107929;28;20511;-59
2022/12/08 02:45:17;;;;;;;37.20;23.87;;;5.30;99.90;;;;;;6106669;29;20480;-59
2022/12/08 02:48:20;;;;;;;39.10;24.90;;;5.30;99.90;;;;;;6107089;28;20445;-59
2022/12/08 02:51:24;;;;;;;46.07;26.30;;;5.20;99.90;;;;;;6103219;29;20980;-59
2022/12/08 02:54:27;;;;;;;49.37;27.10;;;5.30;99.90;;;;;;6109593;28;20469;-59
2022/12/08 02:57:42;;;;;;;37.87;24.60;;;5.20;99.90;;;;;;6128961;28;20443;-59
2022/12/08 03:00:58;;;;;;;45.30;27.87;;;5.20;99.90;;;;;;6122754;28;20472;-59
2022/12/08 03:04:08;;;;;;;47.30;26.70;;;5.30;99.90;;;;;;6121764;29;20480;-60
2022/12/08 03:07:20;;;;;;;49.03;26.37;;;5.30;99.90;;;;;;6114645;29;20944;-59
2022/12/08 03:10:29;;;;;;;41.27;25.50;;;5.30;99.90;;;;;;6116420;28;20822;-59
2022/12/08 03:13:39;;;;;;;43.00;26.10;;;5.20;99.90;;;;;;6129711;28;20479;-59
2022/12/08 03:16:46;;;;;;;42.10;25.20;;;5.20;99.90;;;;;;6131971;28;20976;-59
2022/12/08 03:19:49;;;;;;;48.47;25.17;;;5.20;99.90;;;;;;6131361;28;20479;-59
2022/12/08 03:22:57;;;;;;;45.27;26.10;;;5.30;99.90;;;;;;6131698;28;20491;-60
2022/12/08 03:26:04;;;;;;;46.00;26.60;;;5.20;99.90;;;;;;6131835;28;20472;-59
2022/12/08 03:29:07;;;;;;;42.13;24.73;;;5.10;99.90;;;;;;6131900;28;20471;-59
2022/12/08 03:32:18;;;;;;;40.00;26.53;;;5.10;99.90;;;;;;6131325;28;20475;-59
2022/12/08 03:35:26;;;;;;;43.67;27.20;;;5.20;99.90;;;;;;6131659;28;20472;-59
2022/12/08 03:38:39;;;;;;;39.20;25.30;;;5.20;99.90;;;;;;6152040;28;21000;-59
2022/12/08 03:41:42;;;;;;;43.43;26.30;;;5.20;99.90;;;;;;6154570;28;20538;-59
2022/12/08 03:44:45;;;;;;;46.10;26.73;;;5.10;99.90;;;;;;6155235;28;20491;-59
2022/12/08 03:47:48;;;;;;;43.80;25.93;;;5.10;99.90;;;;;;6153718;28;20967;-59
2022/12/08 03:50:51;;;;;;;44.33;24.20;;;5.20;99.90;;;;;;6153247;28;20850;-59
2022/12/08 03:53:56;;;;;;;39.37;24.57;;;5.20;99.90;;;;;;6153280;28;20479;-59
2022/12/08 03:56:59;;;;;;;37.57;22.73;;;5.20;99.90;;;;;;6131946;28;20539;-59
2022/12/08 04:00:02;;;;;;;36.00;22.43;;;5.10;99.90;;;;;;6129494;28;20491;-59
2022/12/08 04:03:06;;;;;;;36.20;23.00;;;5.10;99.90;;;;;;6130561;28;20491;-59
2022/12/08 04:06:09;;;;;;;35.07;19.77;;;5.10;99.90;;;;;;6131218;28;20487;-59
2022/12/08 04:09:14;;;;;;;35.73;22.40;;;5.20;99.90;;;;;;6130473;28;20480;-59
2022/12/08 04:12:17;;;;;;;28.10;19.30;;;5.20;99.90;;;;;;6130029;28;20480;-60
2022/12/08 04:15:20;;;;;;;29.73;19.40;;;5.10;99.90;;;;;;6130513;28;20471;-59
2022/12/08 04:18:23;;;;;;;36.97;21.90;;;5.10;99.90;;;;;;6130265;28;20466;-59
2022/12/08 04:21:26;;;;;;;30.70;20.20;;;5.20;99.90;;;;;;6130829;28;20448;-59
2022/12/08 04:24:31;;;;;;;28.60;19.40;;;5.20;99.90;;;;;;6130034;28;20936;-59
2022/12/08 04:27:34;;;;;;;30.00;19.30;;;5.30;99.90;;;;;;6130058;28;20940;-60
2022/12/08 04:30:37;;;;;;;37.20;19.93;;;5.20;99.90;;;;;;6130168;28;20897;-59
2022/12/08 04:33:40;;;;;;;32.63;21.87;;;5.30;99.90;;;;;;6129961;28;20486;-59
2022/12/08 04:36:44;;;;;;;33.83;22.07;;;5.30;99.90;;;;;;6137387;28;20470;-59
2022/12/08 04:39:48;;;;;;;34.03;22.90;;;5.30;99.90;;;;;;6153400;28;20466;-60
2022/12/08 04:42:51;;;;;;;31.70;20.43;;;5.20;99.90;;;;;;6153675;28;20486;-59
2022/12/08 04:45:54;;;;;;;32.50;19.97;;;5.30;99.90;;;;;;6153385;28;20490;-59
2022/12/08 04:48:57;;;;;;;34.43;21.43;;;5.30;99.90;;;;;;6153554;28;20471;-59
2022/12/08 04:52:00;;;;;;;33.50;20.50;;;5.30;99.90;;;;;;6152947;28;20474;-59
2022/12/08 04:55:06;;;;;;;31.17;18.27;;;5.30;99.90;;;;;;6147577;28;20543;-59
2022/12/08 04:58:12;;;;;;;29.87;21.20;;;5.30;99.90;;;;;;6129978;28;20491;-59
2022/12/08 05:01:15;;;;;;;27.33;19.50;;;5.30;99.90;;;;;;6120439;28;20487;-59
2022/12/08 05:04:19;;;;;;;28.33;17.90;;;5.30;99.90;;;;;;6130016;28;20484;-59
2022/12/08 05:07:22;;;;;;;28.90;19.27;;;5.20;99.90;;;;;;6134679;28;20472;-59
2022/12/08 05:10:26;;;;;;;28.00;18.43;;;5.20;99.90;;;;;;6130701;28;20554;-59
2022/12/08 05:13:30;;;;;;;28.93;17.80;;;5.10;99.90;;;;;;6129205;29;20487;-59
2022/12/08 05:16:33;;;;;;;29.30;17.97;;;5.20;99.90;;;;;;6129205;28;20476;-59
2022/12/08 05:19:36;;;;;;;28.17;18.40;;;5.20;99.90;;;;;;6129175;28;20546;-59
2022/12/08 05:22:39;;;;;;;27.17;18.73;;;5.20;99.90;;;;;;6128975;28;20483;-59
2022/12/08 05:25:44;;;;;;;27.80;17.73;;;5.20;99.90;;;;;;6129290;28;20583;-59
2022/12/08 05:28:47;;;;;;;26.87;17.77;;;5.20;99.90;;;;;;6129055;28;20976;-58
2022/12/08 05:31:50;;;;;;;29.50;19.20;;;5.20;99.90;;;;;;6132881;28;20852;-58
2022/12/08 05:34:53;;;;;;;28.47;18.00;;;5.20;99.90;;;;;;6133799;28;20480;-59
2022/12/08 05:37:56;;;;;;;24.70;18.00;;;5.30;99.90;;;;;;6150823;28;20545;-59
2022/12/08 05:41:01;;;;;;;26.20;18.80;;;5.30;99.90;;;;;;6157440;28;20858;-58
2022/12/08 05:44:04;;;;;;;29.03;17.00;;;5.30;99.90;;;;;;6157008;28;20505;-58
2022/12/08 05:47:07;;;;;;;29.10;19.10;;;5.20;99.90;;;;;;6157376;28;20950;-58
2022/12/08 05:50:11;;;;;;;32.80;19.90;;;5.20;99.90;;;;;;6157916;28;20561;-58
2022/12/08 05:53:14;;;;;;;36.23;21.03;;;5.10;99.90;;;;;;6157681;28;20483;-58
2022/12/08 05:56:19;;;;;;;38.37;24.10;;;5.10;99.90;;;;;;6141588;28;20483;-58
2022/12/08 05:59:23;;;;;;;34.80;21.27;;;5.10;99.90;;;;;;6133458;28;20472;-59
2022/12/08 06:02:26;;;;;;;33.27;20.47;;;5.00;99.90;;;;;;6133655;28;20490;-59
2022/12/08 06:05:29;;;;;;;35.37;20.87;;;5.10;99.90;;;;;;6129260;28;20953;-59
2022/12/08 06:08:32;;;;;;;32.33;20.40;;;5.10;99.90;;;;;;6133095;28;20488;-59
2022/12/08 06:11:37;;;;;;;32.00;20.40;;;5.10;99.90;;;;;;6133389;28;20479;-59
2022/12/08 06:14:40;;;;;;;29.70;19.60;;;5.10;99.90;;;;;;6133144;28;20491;-59
2022/12/08 06:17:43;;;;;;;31.47;19.00;;;5.10;99.90;;;;;;6132677;28;20494;-59
2022/12/08 06:20:47;;;;;;;29.70;19.00;;;5.00;99.90;;;;;;6132246;28;20870;-59
2022/12/08 06:23:54;;;;;;;30.93;18.60;;;5.00;99.90;;;;;;6131834;28;20486;-59
2022/12/08 06:26:59;;;;;;;32.57;19.73;;;5.00;99.90;;;;;;6132126;28;20484;-58
2022/12/08 06:30:02;;;;;;;28.13;18.70;;;5.10;99.90;;;;;;6132335;28;20483;-58
2022/12/08 06:33:06;;;;;;;31.63;21.00;;;5.10;99.90;;;;;;6132302;28;20479;-59
2022/12/08 06:36:11;;;;;;;32.00;19.37;;;5.20;99.90;;;;;;6135082;28;20585;-58
2022/12/08 06:39:14;;;;;;;32.60;19.17;;;5.20;99.90;;;;;;6155975;28;20574;-58
2022/12/08 06:45:41;;;;;;;34.03;20.37;;;5.30;99.90;;;;;;6155468;28;20490;-59
2022/12/08 06:48:44;;;;;;;34.07;21.70;;;5.20;99.90;;;;;;6155932;28;20474;-59
2022/12/08 06:51:48;;;;;;;33.07;20.10;;;5.20;99.90;;;;;;6155856;28;20474;-59
2022/12/08 06:54:51;;;;;;;35.83;21.10;;;5.20;99.90;;;;;;6151159;28;20476;-59
2022/12/08 06:57:55;;;;;;;38.60;24.27;;;5.20;99.90;;;;;;6131632;28;20483;-59
2022/12/08 07:01:05;;;;;;;30.50;20.37;;;5.20;99.90;;;;;;6131376;28;20493;-59
2022/12/08 07:04:08;;;;;;;33.13;22.60;;;5.20;99.90;;;;;;6131369;29;20484;-59
2022/12/08 07:07:11;;;;;;;35.13;21.67;;;5.10;99.90;;;;;;6131720;28;20491;-59
2022/12/08 07:10:14;;;;;;;33.10;21.27;;;5.10;99.90;;;;;;6123258;28;20479;-59
2022/12/08 07:13:19;;;;;;;36.50;22.20;;;5.10;99.90;;;;;;6131140;28;20960;-59
2022/12/08 07:16:22;;;;;;;37.10;21.80;;;5.00;99.90;;;;;;6131773;28;20554;-59
2022/12/08 07:19:25;;;;;;;40.20;23.60;;;5.10;99.90;;;;;;6137490;28;20479;-59
2022/12/08 07:22:29;;;;;;;39.60;19.93;;;5.00;99.90;;;;;;6133940;28;20549;-59
2022/12/08 07:25:32;;;;;;;36.87;23.67;;;5.00;99.90;;;;;;6130910;28;20506;-59
2022/12/08 07:28:38;;;;;;;44.43;23.80;;;5.00;99.90;;;;;;6130944;28;20493;-59
2022/12/08 07:31:41;;;;;;;41.90;24.00;;;5.00;99.90;;;;;;6130792;28;20476;-59
2022/12/08 07:34:44;;;;;;;35.77;21.83;;;5.10;99.90;;;;;;6131495;28;20857;-60
2022/12/08 07:37:49;;;;;;;34.30;21.40;;;5.20;99.90;;;;;;6147207;28;20470;-59
2022/12/08 07:40:53;;;;;;;34.07;20.77;;;5.20;99.90;;;;;;6154786;28;20479;-58
2022/12/08 07:43:57;;;;;;;34.37;21.60;;;5.20;99.90;;;;;;6154633;28;20479;-59
2022/12/08 07:47:01;;;;;;;38.23;22.50;;;5.30;99.90;;;;;;6154935;28;20997;-59
2022/12/08 07:50:04;;;;;;;33.17;20.40;;;5.40;99.90;;;;;;6154595;28;20600;-59
2022/12/08 07:53:08;;;;;;;30.60;19.57;;;5.40;99.90;;;;;;6153067;28;20805;-58
2022/12/08 07:56:13;;;;;;;27.87;18.43;;;5.50;99.90;;;;;;6138951;28;21011;-58
2022/12/08 07:59:17;;;;;;;32.07;20.30;;;5.50;99.90;;;;;;6130137;28;20475;-59
2022/12/08 08:02:20;;;;;;;35.17;20.37;;;5.50;99.90;;;;;;6129869;28;20851;-59
2022/12/08 08:05:28;;;;;;;30.00;19.60;;;5.60;99.90;;;;;;6130505;28;20491;-59
2022/12/08 08:08:31;;;;;;;28.97;19.60;;;5.60;99.90;;;;;;6129573;28;20511;-58
2022/12/08 08:11:34;;;;;;;29.87;20.47;;;5.60;99.90;;;;;;6129895;28;20779;-58
2022/12/08 08:14:39;;;;;;;32.60;20.30;;;5.60;99.90;;;;;;6125468;28;20491;-58
2022/12/08 08:17:42;;;;;;;32.60;20.37;;;5.60;99.90;;;;;;6129803;28;20787;-58
2022/12/08 08:20:45;;;;;;;38.83;24.10;;;5.60;99.90;;;;;;6129676;28;20484;-58
2022/12/08 08:23:48;;;;;;;37.60;21.60;;;5.70;99.90;;;;;;6129934;28;20484;-59
2022/12/08 08:26:53;;;;;;;26.73;17.53;;;5.70;99.90;;;;;;6129668;28;20479;-59
2022/12/08 08:29:58;;;;;;;23.83;17.70;;;5.80;99.90;;;;;;6129606;28;20488;-59
2022/12/08 08:33:01;;;;;;;23.63;16.90;;;5.80;99.90;;;;;;6129551;28;20479;-59
2022/12/08 08:36:07;;;;;;;20.10;16.80;;;5.90;99.90;;;;;;6131666;28;20791;-58
2022/12/08 08:39:11;;;;;;;40.07;22.80;;;5.90;99.90;;;;;;6153406;28;20514;-59
2022/12/08 08:42:14;;;;;;;36.33;22.30;;;5.70;99.90;;;;;;6152392;28;20487;-59
2022/12/08 08:45:19;;;;;;;29.30;18.60;;;5.80;99.90;;;;;;6152803;28;20490;-58
2022/12/08 08:48:22;;;;;;;33.00;20.13;;;5.70;99.90;;;;;;6152894;28;20514;-58
2022/12/08 08:51:25;;;;;;;41.97;25.87;;;5.70;99.90;;;;;;6153264;28;20888;-59
2022/12/08 08:54:29;;;;;;;45.43;28.00;;;5.70;99.90;;;;;;6151879;28;20474;-59
2022/12/08 08:57:32;;;;;;;39.10;24.27;;;5.70;99.90;;;;;;6129348;28;20454;-60
2022/12/08 09:00:36;;;;;;;38.50;24.43;;;5.70;99.90;;;;;;6129215;28;20451;-59
2022/12/08 09:03:40;;;;;;;41.13;23.97;;;5.80;99.90;;;;;;6129648;28;20464;-58
2022/12/08 09:06:44;;;;;;;34.30;21.27;;;5.80;99.90;;;;;;6129181;28;20499;-58
2022/12/08 09:09:47;;;;;;;39.13;23.17;;;5.90;99.90;;;;;;6129377;28;20463;-58
2022/12/08 09:12:50;;;;;;;33.00;21.60;;;5.70;99.90;;;;;;6128994;28;20539;-60
2022/12/08 09:15:54;;;;;;;32.10;20.67;;;5.80;99.90;;;;;;6129222;28;20558;-60
2022/12/08 09:18:58;;;;;;;34.30;22.10;;;5.80;99.90;;;;;;6129130;28;20498;-60
2022/12/08 09:22:01;;;;;;;36.13;22.37;;;5.80;99.90;;;;;;6129430;28;20799;-59
2022/12/08 09:25:05;;;;;;;36.93;22.53;;;5.80;99.90;;;;;;6129217;28;20490;-59
2022/12/08 09:28:08;;;;;;;30.10;21.93;;;5.80;99.90;;;;;;6129242;28;20476;-59
2022/12/08 09:31:13;;;;;;;31.03;20.37;;;5.90;99.90;;;;;;6129302;28;20472;-60
2022/12/08 09:34:16;;;;;;;33.93;20.30;;;5.90;99.90;;;;;;6129553;28;20574;-61
2022/12/08 09:37:19;;;;;;;33.40;21.10;;;6.00;99.90;;;;;;6142248;28;20490;-60
2022/12/08 09:40:25;;;;;;;31.80;19.93;;;6.00;99.90;;;;;;6153833;28;20482;-59
2022/12/08 09:43:45;;;;;;;34.80;20.97;;;6.00;99.90;;;;;;6152737;28;20551;-58
2022/12/08 09:46:52;;;;;;;37.60;21.97;;;5.90;99.90;;;;;;6153239;28;20482;-58
2022/12/08 09:50:03;;;;;;;36.57;21.10;;;5.90;99.90;;;;;;6153026;28;20482;-59
2022/12/08 09:53:12;;;;;;;35.43;21.60;;;6.00;99.90;;;;;;6152755;28;20561;-58
2022/12/08 09:56:19;;;;;;;32.03;20.03;;;5.90;99.90;;;;;;6153124;28;20598;-58
2022/12/08 09:59:25;;;;;;;32.30;21.73;;;5.90;99.90;;;;;;6152487;28;20490;-59
2022/12/08 10:02:30;;;;;;;35.77;21.80;;;5.90;99.90;;;;;;6152385;28;20487;-59
2022/12/08 10:05:41;;;;;;;33.93;21.90;;;5.80;99.90;;;;;;6156660;28;20486;-58
2022/12/08 10:08:58;;;;;;;34.73;22.00;;;5.70;99.90;;;;;;6156805;28;20483;-58
2022/12/08 10:12:07;;;;;;;36.40;22.10;;;5.60;99.90;;;;;;6152371;28;20537;-58
2022/12/08 10:15:29;;;;;;;34.20;22.93;;;5.70;99.90;;;;;;6151867;28;20975;-59
2022/12/08 10:18:36;;;;;;;34.23;21.80;;;5.70;99.90;;;;;;6148309;28;20459;-58
2022/12/08 10:21:40;;;;;;;38.67;22.17;;;5.60;99.90;;;;;;6156898;28;20478;-58
2022/12/08 10:24:52;;;;;;;37.40;22.27;;;5.60;99.90;;;;;;6156750;28;20478;-59
2022/12/08 10:27:56;;;;;;;42.20;24.27;;;5.50;99.90;;;;;;6156480;28;20935;-59
2022/12/08 10:30:59;;;;;;;35.57;22.30;;;5.70;99.90;;;;;;6156482;28;20919;-59
2022/12/08 10:34:16;;;;;;;37.60;23.90;;;5.80;99.90;;;;;;6156404;28;20478;-58
2022/12/08 10:37:19;;;;;;;37.93;23.10;;;5.90;99.90;;;;;;6144052;28;20476;-59
2022/12/08 10:40:22;;;;;;;35.43;22.53;;;5.90;99.90;;;;;;6132725;28;20826;-58
2022/12/08 10:43:27;;;;;;;37.50;23.63;;;5.80;99.90;;;;;;6132317;28;20475;-59
2022/12/08 10:46:31;;;;;;;38.40;22.47;;;5.80;99.90;;;;;;6132951;28;20479;-59
2022/12/08 10:49:37;;;;;;;35.63;21.33;;;5.80;99.90;;;;;;6132403;28;20482;-58
2022/12/08 10:52:41;;;;;;;32.50;21.60;;;5.80;99.90;;;;;;6132248;28;20488;-60
2022/12/08 10:55:46;;;;;;;37.00;22.30;;;5.90;99.90;;;;;;6143542;28;20478;-59
2022/12/08 10:58:49;;;;;;;31.60;19.90;;;5.90;99.90;;;;;;6155852;28;20760;-60
2022/12/08 11:01:54;;;;;;;42.03;23.53;;;5.90;99.90;;;;;;6156419;28;20499;-59
2022/12/08 11:05:00;;;;;;;33.70;22.40;;;5.80;99.90;;;;;;6155740;28;20485;-58
2022/12/08 11:08:05;;;;;;;39.87;23.40;;;5.70;99.90;;;;;;6156186;28;20479;-58
2022/12/08 11:11:08;;;;;;;37.70;22.80;;;5.60;99.90;;;;;;6156002;28;20489;-58
2022/12/08 11:14:18;;;;;;;36.47;22.40;;;5.60;99.90;;;;;;6155228;28;20475;-58
2022/12/08 11:17:26;;;;;;;41.07;22.40;;;5.70;99.90;;;;;;6155831;28;20954;-57
2022/12/08 11:20:39;;;;;;;35.50;20.50;;;5.70;99.90;;;;;;6155454;28;20506;-58
2022/12/08 11:23:46;;;;;;;35.33;22.30;;;5.70;99.90;;;;;;6150896;28;20490;-58
2022/12/08 11:26:53;;;;;;;37.10;25.20;;;5.70;99.90;;;;;;6155003;28;20490;-58
2022/12/08 11:29:56;;;;;;;39.30;23.00;;;5.70;99.90;;;;;;6154960;28;20493;-59
2022/12/08 11:33:06;;;;;;;42.77;22.97;;;5.70;99.90;;;;;;6154983;28;20474;-58
2022/12/08 11:36:14;;;;;;;37.47;23.50;;;5.70;99.90;;;;;;6152493;28;20476;-57
2022/12/08 11:39:18;;;;;;;41.03;22.90;;;5.80;99.90;;;;;;6131520;28;20472;-58
2022/12/08 11:42:28;;;;;;;39.40;23.80;;;5.90;99.90;;;;;;6131732;28;20506;-59
2022/12/08 11:45:35;;;;;;;37.97;24.70;;;5.90;99.90;;;;;;6131557;28;20471;-58
2022/12/08 11:48:45;;;;;;;43.50;26.20;;;6.00;99.90;;;;;;6128580;28;20429;-59
2022/12/08 11:51:57;;;;;;;47.53;41.00;;;6.00;99.90;;;;;;6119719;29;20461;-61
2022/12/08 11:55:05;;;;;;;40.87;25.30;;;6.00;99.90;;;;;;6109931;29;20476;-58
2022/12/08 11:58:16;;;;;;;39.07;23.43;;;6.00;99.90;;;;;;6111248;29;20487;-59
2022/12/08 12:01:21;;;;;;;38.30;22.30;;;5.90;99.90;;;;;;6119195;28;20472;-59
2022/12/08 12:04:29;;;;;;;41.87;24.93;;;6.00;99.90;;;;;;6116779;29;20484;-59
2022/12/08 12:07:58;;;;;;;44.77;23.63;;;5.90;99.90;;;;;;6117654;29;20480;-59
2022/12/08 12:11:12;;;;;;;40.60;22.73;;;6.00;99.90;;;;;;6116192;28;20495;-59
2022/12/08 12:14:28;;;;;;;34.10;21.27;;;6.00;99.90;;;;;;6126674;28;20538;-60
2022/12/08 12:17:41;;;;;;;33.37;23.27;;;6.00;99.90;;;;;;6130958;28;20487;-60
2022/12/08 12:20:53;;;;;;;36.60;22.30;;;6.00;99.90;;;;;;6116305;29;20524;-61
2022/12/08 12:24:01;;;;;;;39.40;21.60;;;6.00;99.90;;;;;;6124519;28;20480;-60
2022/12/08 12:27:15;;;;;;;37.70;26.00;;;6.10;99.90;;;;;;6149878;28;20797;-59
2022/12/08 12:30:25;;;;;;;48.40;31.27;;;6.10;99.90;;;;;;6106281;28;20497;-60
2022/12/08 12:33:30;;;;;;;55.50;38.57;;;6.20;99.90;;;;;;6106305;29;20485;-61
2022/12/08 12:36:48;;;;;;;55.40;38.77;;;6.20;99.90;;;;;;6118215;28;20439;-61
2022/12/08 12:40:00;;;;;;;55.00;37.00;;;6.20;99.90;;;;;;6153532;28;20471;-61
2022/12/08 12:43:23;;;;;;;40.73;24.67;;;6.20;99.90;;;;;;6153534;28;20479;-60
2022/12/08 12:46:54;;;;;;;43.60;31.23;;;6.10;99.90;;;;;;6129650;28;20531;-60
2022/12/08 12:50:36;;;;;;;37.50;23.47;;;6.10;99.90;;;;;;6129617;28;20479;-60
2022/12/08 12:53:50;;;;;;;40.30;23.53;;;6.10;99.90;;;;;;6129341;28;20984;-60
2022/12/08 12:56:55;;;;;;;37.97;22.03;;;6.00;99.90;;;;;;6150151;28;21007;-60
2022/12/08 13:00:17;;;;;;;34.20;21.50;;;6.10;99.90;;;;;;6154211;28;20484;-60
2022/12/08 13:03:20;;;;;;;38.03;20.10;;;6.20;99.90;;;;;;6155778;28;20487;-60
2022/12/08 13:06:32;;;;;;;39.63;20.67;;;6.20;99.90;;;;;;6161247;28;20482;-60
2022/12/08 13:09:40;;;;;;;32.57;19.60;;;6.40;99.90;;;;;;6141419;28;20774;-59
2022/12/08 13:12:44;;;;;;;31.33;19.70;;;6.40;99.90;;;;;;6105854;29;20476;-58
2022/12/08 13:15:51;;;;;;;29.10;18.03;;;6.30;99.90;;;;;;6107710;29;20461;-60
2022/12/08 13:18:58;;;;;;;33.00;19.67;;;6.30;99.90;;;;;;6108031;29;21040;-59
2022/12/08 13:22:01;;;;;;;29.40;17.97;;;6.30;99.90;;;;;;6105992;29;20484;-59
2022/12/08 13:25:38;;;;;;;30.77;18.37;;;6.40;99.90;;;;;;6105325;29;20495;-59
2022/12/08 13:29:13;;;;;;;27.60;16.77;;;6.40;99.90;;;;;;6110070;29;20945;-58
2022/12/08 13:32:50;;;;;;;27.20;18.83;;;6.40;99.90;;;;;;6100223;29;20465;-58
2022/12/08 13:36:21;;;;;;;32.27;19.47;;;6.40;99.90;;;;;;6109098;28;20623;-58
2022/12/08 13:39:35;;;;;;;32.87;20.97;;;6.40;99.90;;;;;;6149629;28;20470;-57
2022/12/08 13:42:45;;;;;;;27.90;19.50;;;6.40;99.90;;;;;;6149778;28;21063;-58
2022/12/08 13:45:52;;;;;;;28.77;18.47;;;6.40;99.90;;;;;;6149977;28;21167;-57
2022/12/08 13:49:22;;;;;;;23.27;14.87;;;6.40;99.90;;;;;;6150582;28;20584;-58
2022/12/08 13:52:51;;;;;;;28.60;15.27;;;6.40;99.90;;;;;;6155939;28;20503;-58
2022/12/08 13:56:15;;;;;;;22.10;15.20;;;6.30;99.90;;;;;;6141931;28;20510;-57
2022/12/08 13:59:44;;;;;;;23.83;16.30;;;6.30;99.90;;;;;;6132670;28;20483;-58
2022/12/08 14:02:51;;;;;;;22.97;13.03;;;6.40;99.90;;;;;;6132991;28;20861;-58
2022/12/08 14:05:55;;;;;;;23.17;14.37;;;6.30;99.90;;;;;;6132943;28;20494;-58
2022/12/08 14:09:17;;;;;;;24.67;13.80;;;6.20;99.90;;;;;;6133064;28;20622;-58
2022/12/08 14:12:23;;;;;;;25.70;14.90;;;6.00;99.90;;;;;;6132880;28;20556;-58
2022/12/08 14:15:27;;;;;;;20.23;13.27;;;5.80;99.90;;;;;;6132876;28;20444;-58
2022/12/08 14:18:38;;;;;;;19.17;13.20;;;5.80;99.90;;;;;;6132770;28;20451;-57
2022/12/08 14:21:42;;;;;;;20.60;13.73;;;5.70;99.90;;;;;;6132726;28;20459;-57
2022/12/08 14:24:46;;;;;;;29.00;13.93;;;5.70;99.90;;;;;;6132337;28;20479;-58
2022/12/08 14:27:50;;;;;;;26.00;16.73;;;5.70;99.90;;;;;;6132936;28;20468;-58
2022/12/08 14:30:55;;;;;;;21.60;12.87;;;5.80;99.90;;;;;;6132420;28;20487;-58
2022/12/08 14:34:00;;;;;;;20.90;15.50;;;5.80;99.90;;;;;;6132668;28;20479;-58
2022/12/08 14:37:03;;;;;;;29.80;17.57;;;5.80;99.90;;;;;;6141934;28;20993;-58
2022/12/08 14:40:20;;;;;;;28.27;15.33;;;5.60;99.90;;;;;;6156039;28;20993;-58
2022/12/08 14:43:27;;;;;;;25.80;14.70;;;5.70;99.90;;;;;;6156387;28;20495;-58
2022/12/08 14:46:30;;;;;;;24.40;15.20;;;5.70;99.90;;;;;;6165748;28;20478;-57
2022/12/08 14:49:36;;;;;;;26.43;13.87;;;5.70;99.90;;;;;;6171274;28;20474;-57
2022/12/08 14:52:43;;;;;;;24.33;14.07;;;5.60;99.90;;;;;;6163194;28;20477;-58
2022/12/08 14:55:47;;;;;;;19.87;13.80;;;5.60;99.90;;;;;;6148067;28;20472;-58
2022/12/08 14:59:02;;;;;;;28.13;20.63;;;5.60;99.90;;;;;;6132003;28;20579;-58
2022/12/08 15:02:23;;;;;;;27.00;16.30;;;5.50;99.90;;;;;;6132243;28;20490;-58
2022/12/08 15:05:30;;;;;;;23.87;15.57;;;5.50;99.90;;;;;;6131834;28;20557;-58
2022/12/08 15:08:34;;;;;;;26.27;17.20;;;5.50;99.90;;;;;;6131827;28;21127;-58
2022/12/08 15:11:37;;;;;;;24.87;16.13;;;5.40;99.90;;;;;;6132700;28;20490;-58
2022/12/08 15:14:43;;;;;;;22.40;15.27;;;5.50;99.90;;;;;;6131411;28;20479;-58
2022/12/08 15:17:50;;;;;;;24.83;14.07;;;5.50;99.90;;;;;;6131908;28;20479;-58
2022/12/08 15:21:01;;;;;;;22.60;14.50;;;5.50;99.90;;;;;;6132377;28;20801;-58
2022/12/08 15:24:05;;;;;;;26.77;16.73;;;5.50;99.90;;;;;;6131790;28;20976;-58
2022/12/08 15:27:16;;;;;;;23.30;15.10;;;5.50;99.90;;;;;;6131593;28;20467;-58
2022/12/08 15:30:20;;;;;;;21.67;15.40;;;5.60;99.90;;;;;;6131533;28;20480;-59
2022/12/08 15:33:23;;;;;;;27.03;15.90;;;5.60;99.90;;;;;;6131322;28;20849;-57
2022/12/08 15:36:28;;;;;;;28.77;18.67;;;5.70;99.90;;;;;;6136378;28;20459;-63
2022/12/08 15:39:33;;;;;;;25.13;17.60;;;5.70;99.90;;;;;;6146986;28;20458;-63
2022/12/08 15:42:36;;;;;;;32.30;21.17;;;5.80;99.90;;;;;;6155055;28;20986;-64
2022/12/08 15:45:40;;;;;;;27.37;18.07;;;5.90;99.90;;;;;;6155097;28;20779;-63
2022/12/08 15:48:59;;;;;;;24.20;15.90;;;5.90;99.90;;;;;;6155268;28;20986;-63
2022/12/08 15:52:04;;;;;;;25.77;15.87;;;5.90;99.90;;;;;;6155104;28;20508;-63
2022/12/08 15:55:12;;;;;;;31.00;17.53;;;5.80;99.90;;;;;;6170554;23;20462;-63
2022/12/08 15:58:20;;;;;;;23.33;16.33;;;5.80;99.90;;;;;;6181032;28;20485;-63
2022/12/08 16:01:43;;;;;;;27.57;16.73;;;5.70;99.90;;;;;;6181538;28;20555;-63
2022/12/08 16:04:47;;;;;;;32.37;18.10;;;5.80;99.90;;;;;;6180585;28;20541;-63
2022/12/08 16:08:14;;;;;;;22.97;17.67;;;5.80;99.90;;;;;;6179849;28;20474;-62
2022/12/08 16:15:13;;;;;;;26.40;17.60;;;6.00;99.90;;;;;;6178110;28;20802;-63